Time;durP1;ratioP1;P1;durP2;ratioP2;P2;SDS_P1;SDS_P2;PMS_P1;PMS_P2;Temp;Humidity;BMP_temperature;BMP_pressure;BME280_temperature;BME280_humidity;BME280_pressure;Samples;Min_cycle;Max_cycle;Signal;HPM_P1;HPM_P2
2021/09/11 19:38:50;;;;;;;1.00;0.90;;;;;;;;;;5106134;27;20151;-63
2021/09/11 19:41:16;;;;;;;0.80;0.80;;;;;;;;;;5085819;28;20103;-62
2021/09/11 19:43:43;;;;;;;0.80;0.80;;;;;;;;;;5085887;28;20452;-62
2021/09/11 19:46:13;;;;;;;0.90;0.80;;;;;;;;;;5083708;28;20048;-61
2021/09/11 19:48:40;;;;;;;0.80;0.80;;;;;;;;;;5085415;28;20421;-61
2021/09/11 19:51:06;;;;;;;0.98;0.77;;;;;;;;;;5084433;28;20474;-61
2021/09/11 19:53:32;;;;;;;0.80;0.73;;;;;;;;;;5086636;28;20055;-61
2021/09/11 19:55:58;;;;;;;0.70;0.70;;;;;;;;;;5084009;28;20063;-61
2021/09/11 19:58:24;;;;;;;0.60;0.60;;;;;;;;;;5086003;28;20447;-61
2021/09/11 20:00:51;;;;;;;0.70;0.70;;;;;;;;;;5087591;28;20069;-61
2021/09/11 20:03:17;;;;;;;1.38;0.77;;;;;;;;;;5089606;28;20049;-62
2021/09/11 20:05:43;;;;;;;0.63;0.63;;;;;;;;;;5106438;28;20073;-61
2021/09/11 20:08:09;;;;;;;1.10;1.00;;;;;;;;;;5090144;28;20115;-62
2021/09/11 20:10:35;;;;;;;1.95;1.20;;;;;;;;;;5085371;28;20104;-64
2021/09/11 20:13:01;;;;;;;0.60;0.60;;;;;;;;;;5085258;28;20052;-60
2021/09/11 20:15:27;;;;;;;1.73;0.80;;;;;;;;;;5084135;28;20062;-61
2021/09/11 20:17:53;;;;;;;1.00;0.88;;;;;;;;;;5083125;28;20036;-60
2021/09/11 20:20:20;;;;;;;1.40;1.27;;;;;;;;;;5084050;28;20021;-61
2021/09/11 20:22:46;;;;;;;1.20;0.90;;;;;;;;;;5085689;28;20418;-61
2021/09/11 20:25:12;;;;;;;1.48;1.13;;;;;;;;;;5084203;28;20055;-61
2021/09/11 20:27:38;;;;;;;0.82;0.80;;;;;;;;;;5084009;28;20028;-62
2021/09/11 20:30:05;;;;;;;0.80;0.80;;;;;;;;;;5085088;28;20065;-62
2021/09/11 20:32:31;;;;;;;0.90;0.80;;;;;;;;;;5084470;28;20056;-61
2021/09/11 20:34:57;;;;;;;1.02;0.88;;;;;;;;;;5083587;28;20108;-61
2021/09/11 20:37:23;;;;;;;1.02;0.73;;;;;;;;;;5083078;28;20032;-61
2021/09/11 20:39:50;;;;;;;0.82;0.82;;;;;;;;;;5082675;28;20166;-62
2021/09/11 20:42:17;;;;;;;0.88;0.80;;;;;;;;;;5083687;28;20075;-60
2021/09/11 20:44:43;;;;;;;1.02;0.93;;;;;;;;;;5074575;28;20055;-60
2021/09/11 20:47:10;;;;;;;1.20;1.10;;;;;;;;;;5081614;28;20453;-60
2021/09/11 20:49:36;;;;;;;1.10;1.00;;;;;;;;;;5073007;28;20028;-60
2021/09/11 20:52:02;;;;;;;1.30;1.20;;;;;;;;;;5069794;28;20510;-59
2021/09/11 20:54:28;;;;;;;1.25;1.15;;;;;;;;;;5069174;28;20511;-61
2021/09/11 20:56:54;;;;;;;1.10;1.00;;;;;;;;;;5069519;28;20051;-60
2021/09/11 20:59:20;;;;;;;1.58;1.48;;;;;;;;;;5068911;28;20031;-60
2021/09/11 21:01:46;;;;;;;1.20;1.10;;;;;;;;;;5068824;28;20398;-61
2021/09/11 21:04:12;;;;;;;1.27;1.17;;;;;;;;;;5070069;28;20021;-60
2021/09/11 21:06:39;;;;;;;1.08;0.98;;;;;;;;;;5069432;28;20021;-60
2021/09/11 21:09:05;;;;;;;1.55;0.88;;;;;;;;;;5068543;28;20398;-60
2021/09/11 21:11:31;;;;;;;1.10;0.90;;;;;;;;;;5070177;28;20021;-60
2021/09/11 21:13:57;;;;;;;1.10;1.00;;;;;;;;;;5070259;28;20050;-60
2021/09/11 21:16:23;;;;;;;1.85;1.00;;;;;;;;;;5068891;28;20020;-60
2021/09/11 21:18:50;;;;;;;1.80;1.08;;;;;;;;;;5068352;28;20032;-60
2021/09/11 21:21:16;;;;;;;1.65;1.20;;;;;;;;;;5069596;28;20078;-60
2021/09/11 21:23:42;;;;;;;1.70;1.27;;;;;;;;;;5070106;28;20321;-60
2021/09/11 21:26:09;;;;;;;1.20;1.10;;;;;;;;;;5069658;28;20032;-60
2021/09/11 21:28:35;;;;;;;1.10;1.00;;;;;;;;;;5068540;28;20037;-60
2021/09/11 21:31:01;;;;;;;1.25;0.98;;;;;;;;;;5069553;28;20426;-59
2021/09/11 21:33:27;;;;;;;0.80;0.80;;;;;;;;;;5069833;28;20020;-60
2021/09/11 21:35:53;;;;;;;1.65;1.25;;;;;;;;;;5067817;28;20035;-60
2021/09/11 21:38:20;;;;;;;0.95;0.90;;;;;;;;;;5053633;28;20388;-60
2021/09/11 21:40:46;;;;;;;2.47;0.90;;;;;;;;;;5069591;28;20048;-61
2021/09/11 21:43:12;;;;;;;1.38;1.00;;;;;;;;;;5068899;28;20035;-61
2021/09/11 21:45:39;;;;;;;1.10;0.90;;;;;;;;;;5069418;28;20048;-61
2021/09/11 21:48:05;;;;;;;0.90;0.90;;;;;;;;;;5066330;28;20522;-60
2021/09/11 21:50:31;;;;;;;1.90;1.20;;;;;;;;;;5068848;28;20035;-60
2021/09/11 21:52:57;;;;;;;1.35;0.90;;;;;;;;;;5068956;28;20028;-60
2021/09/11 21:55:23;;;;;;;0.70;0.70;;;;;;;;;;5069302;28;20028;-60
2021/09/11 21:57:51;;;;;;;1.15;1.05;;;;;;;;;;5068696;28;20020;-60
2021/09/11 22:00:27;;;;;;;1.55;0.90;;;;;;;;;;5066882;28;20114;-61
2021/09/11 22:02:53;;;;;;;1.17;1.08;;;;;;;;;;5068563;28;20024;-60
2021/09/11 22:05:19;;;;;;;0.90;0.90;;;;;;;;;;5067178;28;20048;-61
2021/09/11 22:07:45;;;;;;;1.23;1.02;;;;;;;;;;5068400;28;20032;-60
2021/09/11 22:10:11;;;;;;;1.15;0.95;;;;;;;;;;5068575;28;20027;-60
2021/09/11 22:12:38;;;;;;;1.13;1.05;;;;;;;;;;5069130;28;20024;-60
2021/09/11 22:15:07;;;;;;;1.10;1.00;;;;;;;;;;5068822;28;20073;-60
2021/09/11 22:17:33;;;;;;;1.10;1.00;;;;;;;;;;5068137;28;20029;-60
2021/09/11 22:19:59;;;;;;;1.40;1.00;;;;;;;;;;5067641;28;20021;-60
2021/09/11 22:22:25;;;;;;;1.02;0.93;;;;;;;;;;5069505;28;20021;-60
2021/09/11 22:24:51;;;;;;;1.20;1.10;;;;;;;;;;5068495;28;20024;-60
2021/09/11 22:27:17;;;;;;;1.00;0.90;;;;;;;;;;5068222;28;20509;-60
2021/09/11 22:29:43;;;;;;;1.50;1.08;;;;;;;;;;5068734;28;20031;-60
2021/09/11 22:32:09;;;;;;;1.02;0.93;;;;;;;;;;5067658;28;20274;-60
2021/09/11 22:34:35;;;;;;;0.80;0.80;;;;;;;;;;5068546;28;20033;-60
2021/09/11 22:37:02;;;;;;;1.00;1.00;;;;;;;;;;5067730;28;20032;-60
2021/09/11 22:39:28;;;;;;;1.05;0.95;;;;;;;;;;5068554;28;20020;-61
2021/09/11 22:41:54;;;;;;;1.10;1.00;;;;;;;;;;5067751;28;20036;-60
2021/09/11 22:44:20;;;;;;;1.67;1.00;;;;;;;;;;5058861;28;20613;-60
2021/09/11 22:46:46;;;;;;;1.15;1.00;;;;;;;;;;5067975;28;20514;-61
2021/09/11 22:49:12;;;;;;;1.25;1.15;;;;;;;;;;5067815;28;20021;-61
2021/09/11 22:51:38;;;;;;;0.80;0.80;;;;;;;;;;5067713;28;20044;-61
2021/09/11 22:54:04;;;;;;;1.00;0.90;;;;;;;;;;5067929;28;20077;-61
2021/09/11 22:56:30;;;;;;;0.90;0.90;;;;;;;;;;5067170;28;20029;-61
2021/09/11 22:58:56;;;;;;;1.35;0.85;;;;;;;;;;5067593;28;20028;-61
2021/09/11 23:01:22;;;;;;;0.77;0.77;;;;;;;;;;5066483;28;20494;-61
2021/09/11 23:03:48;;;;;;;0.90;0.90;;;;;;;;;;5068425;28;20029;-61
2021/09/11 23:06:14;;;;;;;0.65;0.65;;;;;;;;;;5067794;28;20020;-61
2021/09/11 23:08:40;;;;;;;1.25;1.00;;;;;;;;;;5067948;28;20032;-61
2021/09/11 23:11:07;;;;;;;1.00;0.90;;;;;;;;;;5051170;28;20491;-61
2021/09/11 23:13:33;;;;;;;1.40;0.90;;;;;;;;;;5046418;28;20037;-61
2021/09/11 23:15:59;;;;;;;0.90;0.90;;;;;;;;;;5058826;28;20025;-61
2021/09/11 23:18:25;;;;;;;1.42;1.13;;;;;;;;;;5068144;28;20107;-61
2021/09/11 23:20:51;;;;;;;1.20;1.00;;;;;;;;;;5068037;28;20053;-61
2021/09/11 23:23:17;;;;;;;1.10;1.00;;;;;;;;;;5064430;28;20036;-61
2021/09/11 23:25:43;;;;;;;0.80;0.80;;;;;;;;;;5067928;28;20042;-61
2021/09/11 23:28:09;;;;;;;1.70;1.08;;;;;;;;;;5067519;28;20024;-60
2021/09/11 23:30:35;;;;;;;1.73;0.80;;;;;;;;;;5067930;28;20025;-60
2021/09/11 23:33:01;;;;;;;0.70;0.70;;;;;;;;;;5066437;28;20047;-60
2021/09/11 23:35:27;;;;;;;0.88;0.88;;;;;;;;;;5068083;28;20021;-60
2021/09/11 23:37:54;;;;;;;0.90;0.90;;;;;;;;;;5064795;28;20443;-60
2021/09/11 23:40:20;;;;;;;1.20;1.10;;;;;;;;;;5067366;28;20422;-60
2021/09/11 23:42:46;;;;;;;1.02;0.90;;;;;;;;;;5067750;28;20028;-61
2021/09/11 23:45:12;;;;;;;0.80;0.80;;;;;;;;;;5067271;28;20027;-61
2021/09/11 23:47:38;;;;;;;0.80;0.80;;;;;;;;;;5067979;28;20029;-60
2021/09/11 23:50:04;;;;;;;0.80;0.80;;;;;;;;;;5066809;28;20032;-61
2021/09/11 23:52:30;;;;;;;1.20;1.10;;;;;;;;;;5066130;28;20036;-61
2021/09/11 23:54:56;;;;;;;1.00;0.90;;;;;;;;;;5067979;28;20104;-61
2021/09/11 23:57:22;;;;;;;1.30;1.08;;;;;;;;;;5066376;28;20586;-61
2021/09/11 23:59:49;;;;;;;0.80;0.80;;;;;;;;;;5067326;28;20028;-60
